cdbaby.com alexa rank chart, cdbaby.com alexa rank daily changes

cdbaby.com alexa rank chart, cdbaby.com alexa rank daily changes

cdbaby.com
Actual rank:
10 556

RANK HISTORY

Date Rank Diff
2017/05/27 10 556 -20
2017/05/26 10 576 +80
2017/05/25 10 496 -11
2017/05/24 10 507 +29
2017/05/23 10 478 +12
2017/05/22 10 466 -9
2017/05/21 10 475 +28
2017/05/20 10 447 -6
2017/05/19 10 453 +106
2017/05/18 10 347 +12
2017/05/17 10 335 +109
2017/05/16 10 226 +81
2017/05/15 10 145 -6
2017/05/14 10 151 -1
2017/05/13 10 152 +31
2017/05/12 10 121 +30
2017/05/11 10 091 +37
2017/05/10 10 054 +21
2017/05/09 10 033 -161
2017/05/08 10 194 -66
2017/05/07 10 260 -42
2017/05/06 10 302 -52
2017/05/05 10 354 +63
2017/05/04 10 291 -21
2017/05/03 10 312 +35
2017/05/02 10 277 -18
2017/05/01 10 295 -64
2017/04/30 10 359 +1
2017/04/29 10 358 +37
2017/04/28 10 321 +12
2017/04/27 10 309 +89
2017/04/26 10 220 +7
2017/04/25 10 213 +27
2017/04/24 10 186 +41
2017/04/23 10 145 -11
2017/04/22 10 156 +16
2017/04/21 10 140 -70
2017/04/20 10 210 +4
2017/04/19 10 206 +7
2017/04/18 10 199 +45
2017/04/17 10 154 -143
2017/04/16 10 297 -24
2017/04/15 10 321 -9
2017/04/14 10 330 +45
2017/04/13 10 285 +34
2017/04/12 10 251 +1
2017/04/11 10 250 -19
2017/04/10 10 269 -45
2017/04/09 10 314 +61
2017/04/08 10 253 +21
2017/04/07 10 232 +33
2017/04/06 10 199 -11
2017/04/05 10 210 -46
2017/04/04 10 256 -27
2017/04/03 10 283 -52
2017/04/02 10 335 +14
2017/04/01 10 321 +18
2017/03/31 10 303 +16
2017/03/30 10 287 -42
2017/03/29 10 329 +19
2017/03/28 10 310

WIDGET FOR YOUR SITE

DOMAINS WITH THE NEAREST RANK

Domain Rank
7sur7.be 10 551
twoplayergames.org 10 552
bit.ly 10 553
speedpay.com 10 554
indianrailways.gov.in 10 555
cdbaby.com 10 556
nielsen.com 10 557
rtl.hr 10 558
ezprice.com.tw 10 559
sport.ro 10 560
typing.com 10 561

DOMAINS WITH THE NEAREST RANK BY TLD .com

Domain Rank
ebcbuzz.com 10 541
wwwpromoter.com 10 542
xxxtubedot.com 10 545
linkshare.com 10 549
speedpay.com 10 554
cdbaby.com 10 556
nielsen.com 10 557
typing.com 10 561
savebt.com 10 562
bestbestworld.com 10 563
warmane.com 10 564